createdAt,value
2018-06-03T20:36:10.337Z,100186
2018-06-03T20:38:36.358Z,100178
2018-06-03T20:41:02.408Z,100181
2018-06-03T20:46:00.827Z,100183
2018-06-03T20:48:26.838Z,100181
2018-06-03T20:50:52.932Z,100189
2018-06-03T20:53:18.948Z,100189
2018-06-03T20:55:44.980Z,100193
2018-06-03T20:58:10.995Z,100195
2018-06-03T21:00:37.023Z,100196
2018-06-03T21:03:03.042Z,100204
2018-06-03T21:05:29.156Z,100206
2018-06-03T21:07:55.185Z,100211
2018-06-03T21:10:21.215Z,100209
2018-06-03T21:12:47.224Z,100209
2018-06-03T21:15:13.255Z,100212
2018-06-03T21:17:39.262Z,100211
2018-06-03T21:20:05.309Z,100214
2018-06-03T21:22:31.329Z,100201
2018-06-03T21:24:57.372Z,100203
2018-06-03T21:27:23.399Z,100209
2018-06-03T21:29:49.426Z,100214
2018-06-03T21:32:15.459Z,100209
2018-06-03T21:34:41.519Z,100202
2018-06-03T21:37:07.532Z,100210
2018-06-03T21:39:33.563Z,100205
2018-06-03T21:41:59.591Z,100203
2018-06-03T21:44:25.623Z,100205
2018-06-03T21:46:51.667Z,100211
2018-06-03T21:49:17.687Z,100207
2018-06-03T21:51:43.699Z,100210
2018-06-03T21:54:09.728Z,100209
2018-06-03T21:56:35.742Z,100199
2018-06-03T21:59:01.763Z,100200
2018-06-03T22:01:27.811Z,100195
2018-06-03T22:03:53.826Z,100214
2018-06-03T22:06:19.848Z,100200
2018-06-03T22:08:45.867Z,100203
2018-06-03T22:11:11.890Z,100207
2018-06-03T22:13:37.914Z,100209
2018-06-03T22:16:03.968Z,100209
2018-06-03T22:18:29.988Z,100203
2018-06-03T22:20:56.014Z,100204
2018-06-03T22:23:22.038Z,100211
2018-06-03T22:25:48.071Z,100198
2018-06-03T22:28:14.107Z,100196
2018-06-03T22:30:40.131Z,100199
2018-06-03T22:33:06.146Z,100198
2018-06-03T22:35:32.166Z,100194
2018-06-03T22:37:58.185Z,100185
2018-06-03T22:40:24.356Z,100192
2018-06-03T22:42:50.385Z,100181
2018-06-03T22:45:16.432Z,100187
2018-06-03T22:47:42.464Z,100173
2018-06-03T22:50:08.546Z,100172
2018-06-03T22:52:34.537Z,100173
2018-06-03T22:55:00.562Z,100165
2018-06-03T22:57:26.599Z,100168
2018-06-03T22:59:52.635Z,100161
2018-06-03T23:02:18.650Z,100166
2018-06-03T23:04:44.666Z,100163
2018-06-03T23:07:10.682Z,100160
2018-06-03T23:09:36.702Z,100166
2018-06-03T23:12:02.722Z,100157
2018-06-03T23:14:28.727Z,100160
2018-06-03T23:16:54.801Z,100153
2018-06-03T23:19:20.794Z,100159
2018-06-03T23:21:46.835Z,100154
2018-06-03T23:24:12.839Z,100153
2018-06-03T23:26:38.864Z,100159
2018-06-03T23:29:04.896Z,100154
2018-06-03T23:31:30.913Z,100152
2018-06-03T23:33:56.932Z,100150
2018-06-03T23:36:22.950Z,100147
2018-06-03T23:38:48.963Z,100151
2018-06-03T23:41:14.995Z,100143
2018-06-03T23:43:41.014Z,100142
2018-06-03T23:46:07.052Z,100141
2018-06-03T23:48:33.062Z,100143
2018-06-03T23:50:59.113Z,100143
2018-06-03T23:53:25.141Z,100141
2018-06-03T23:55:51.162Z,100143
2018-06-03T23:58:17.170Z,100137
